Dernières infos :  

11/11/2018  Mise à jour des tableaux d'analyses décadaires : rubrique climatologie
04/1/2018 Mise en ligne de la synthèse climatologique d'OCTOBRE 2018 : 
CLIQUEZ ICI
2/11/2018  Mise à jour des tableaux d'analyses décadaires, mensuelles et annuelles : rubrique climatologie   

Si l'entête du tableau ne s'affiche pas correctement, => actualisez la page (F5 avec Internet Explorer, Chrome...).
Utilisez l'ascenseur sur la droite des lignes du tableau pour faire défiler verticalement les jours du mois.

TABLEAU DES DONNEES COMPLETES NOAA d'OCTOBRE 2018

DATE TEMPERATURE
sous abri
TEMPARATURE 
au sol
VENT  et  Indice de Refroidissement Eolien  PRECIPITATIONS (en mm/m2)
et Intensité
PRESSION ATMOSPHERIQUE (en hPa) HUMIDITE de l'AIR RADIATIONS SOLAIRES (en W/m2)
Mini Moy. Maxi Mini Moy. Maxi Moyen Rafale I.R.E.
Minii
Précip. jour Cumul mois Intensité Maxi Mini Moy. Maxi Mini Moy. Maxi Pic maxi du jour Total jour
01/10/18 9.7° 11.7° 14.4° 7.8° 11.2° 17.2° 6.8km/h dir ONO 38.6km/h dir N 8.1° 2 2 8.4mm/h 1015.9 1019.1 1023.9 64% 79.4% 92% 824 18 663
02/10/18 4.6° 10.1° 15° 2.2° 9.8° 18.3° 6km/h dir ONO 24.1km/h dir O 4.4° 0 2 1023.7 1025.3 1026.6 51% 74.6% 94% 717 35 376
03/10/18 9.8° 14.1° 19.6° 9.4° 14.3° 22.8° 7.1km/h dir NNE 32.2km/h dir NNE 9.8° 0 2 1024.7 1025.9 1027.3 67% 79.3% 89% 854 38 081
04/10/18 10.3° 13.3° 18.9° 7.8° 12.9° 21.1° 4.5km/h dir ONO 22.5km/h dir NNE 10.3° 0 2 1021.3 1023.2 1024.9 63% 84.8% 93% 684 28 141
05/10/18 7.1° 16.1° 27.1° 15.2° 29.4° 3.5km/h dir SE 25.7km/h dir SSE 7.1° 0 2 1014.8 1018.4 1021.8 36% 71.3% 97% 628 46 397
06/10/18 14.2° 19.8° 25.8° 10.6° 19.4° 28.3° 10.3km/h dir SSE 38.6km/h dir SSE 14.3° 0 2 1008 1012 1015.3 43% 60.7% 77% 700 42 296
07/10/18 12.4° 13.8° 19.1° 12.2° 13.6° 18.3° 3.7km/h dir SSE 37km/h dir SE 12.1° 22.2 24.2 71.6mm/h 1010 1014.1 1017.3 68% 91.3% 95% 332 9 434
08/10/18 10.3° 13.6° 15.2° 8.9° 13.4° 15.6° 2.4km/h dir ONO 16.1km/h dir NO 10.3° 0.2 24.4 1016.4 1018.9 1021.2 87% 93.1% 96% 156 10 407
09/10/18 10.8° 12.9° 14.6° 11.1° 13° 15° 1.8km/h dir ENE 12.9km/h dir NNE 10.8° 0.2 24.6 1018.8 1020 1021.4 91% 94.6% 96% 158 10 376
10/10/18 11.9° 13.6° 16.2° 11.7° 13.6° 16.7° 2.1km/h dir SE 14.5km/h dir SSE 11.9° 0.2 24.8 1011.4 1014.8 1018.9 87% 94.6% 97% 251 12 132
11/10/18 13.9° 18.8° 24.8° 13.3° 18.4° 26.7° 6.8km/h dir SSE 38.6km/h dir SSE 13.9° 1.6 26.4 1.2mm/h 1011.7 1013 1016.6 55% 79.4% 96% 638 40 793
12/10/18 17.2° 20.4° 25.8° 16.1° 20° 27.8° 10km/h dir SSE 38.6km/h dir SSE 17.2° 0 26.4 1016.3 1019.9 1022 50% 71.4% 82% 649 42 562
13/10/18 15.3° 19.8° 25.7° 12.8° 19.1° 27.8° 6.9km/h dir SE 33.8km/h dir S 15.3° 0 26.4 1015.2 1018.7 1021.7 49% 73.4% 92% 584 43 307
14/10/18 15.7° 19.1° 23.3° 14.4° 18.4° 25.6° 8.9km/h dir SE 37km/h dir SE 15.6° 0 26.4 1009.1 1011.3 1015.4 47% 65.4% 83% 766 31 030
15/10/18 13.1° 18.8° 24.7° 11.1° 18° 27.8° 4km/h dir SE 19.3km/h dir SSE 13.2° 0 26.4 1009.4 1010.7 1013.5 40% 62.7% 81% 615 36 833
16/10/18 10.7° 17.3° 23.8° 8.9° 16.5° 26.7° 2.6km/h dir SE 16.1km/h dir ONO 10.7° 0 26.4 1013.4 1016.1 1017.9 46% 70.8% 90% 561 39 373
17/10/18 7.8° 13.4° 21.2° 6.7° 12.8° 24.4° 2.4km/h dir ESE 17.7km/h dir ONO 7.8° 0 26.4 1014.5 1016.3 1017.8 58% 82.4% 96% 571 38 461
18/10/18 6.4° 12.4° 21.4° 11.8° 23.9° 2.1km/h dir O 16.1km/h dir ONO 6.4° 0.2 26.6 1014.2 1015.5 1017 55% 84.3% 96% 536 37 078
19/10/18 6.7° 11.8° 18.7° 11.1° 21.7° 2.1km/h dir N 14.5km/h dir O 6.8° 0.2 26.8 1016.4 1018.9 1021.8 70% 87.4% 96% 538 35 898
20/10/18 6.5° 10.2° 17.3° 9.4° 18.9° 1.6km/h dir O 17.7km/h dir N 6.5° 0.2 27 1021.7 1024.6 1027 75% 92.1% 97% 482 17 805
21/10/18 4.9° 8.4° 12.9° 3.3° 7.6° 13.9° 1km/h dir ONO 11.3km/h dir O 4.9° 0.2 27.2 1020.5 1023.6 1025.8 88% 94.7% 97% 367 10 335
22/10/18 9.4° 17.4° 1.1° 9.3° 20° 6.4km/h dir ONO 37km/h dir N 2.8° 0.4 27.6 1020.8 1024.1 1027.3 44% 76.6% 97% 613 34 963
23/10/18 2.9° 9.9° 16.6° 0.6° 19.4° 6.6km/h dir N 25.7km/h dir NO 2.7° 0 27.6 1027.2 1028.8 1030.8 58% 76.8% 94% 564 35 145
24/10/18 4.5° 10.3° 16.7° 2.8° 9.8° 19.4° 9.2km/h dir ONO 35.4km/h dir ONO 4.2° 0 27.6 1024.2 1027.1 1029.4 66% 83.8% 95% 680 34 116
25/10/18 8.7° 11.1° 12.8° 7.2° 10.8° 13.3° 4.8km/h dir N 20.9km/h dir NNE 8.2° 0.2 27.8 1017.8 1021.2 1024.2 86% 90.6% 95% 155 7 230
26/10/18 9.4° 11.2° 15.2° 7.8° 11° 17.2° 2.9km/h dir SSE 16.1km/h dir NO 8.3° 0 27.8 1009.7 1013.1 1017.7 71% 86.1% 92% 671 19 407
27/10/18 6.3° 7.7° 9.7° 6.1° 7.4° 9.4° 8km/h dir N 27.4km/h dir NO 3.4° 5 32.8 3.6mm/h 1003 1007 1010.7 87% 91.1% 95% 97 5 409
28/10/18 5.2° 6.8° 10.1° 4.4° 6.7° 12.2° 8.4km/h dir N 25.7km/h dir N 2.4° 11.2 44 8.4mm/h 999.1 1000.6 1003.2 75% 85.9% 95% 434 16 297
29/10/18 4.8° 5.3° 0.6° 4.6° 5.6° 5.3km/h dir ONO 35.4km/h dir NNE -0.3° 33.6 77.6 17.4mm/h 985.2 993.7 1001.6 93% 94.6% 95% 176 3 652
30/10/18 4.4° 10.9° 0.6° 3.7° 12.8° 8.5km/h dir SSE 46.7km/h dir SSE -2.1° 8.8 86.4 2.4mm/h 990.5 1002.9 1010.6 67% 89% 95% 547 16 951
31/10/18 1.9° 8.8° 16.1° 1.1° 8.5° 19.4° 0.8km/h dir NNE 11.3km/h dir E 0.9° 0.4 86.8 1009.8 1010.7 1011.6 59% 87.7% 96% 687 20 167

RETOUR ACCUEIL


Date de création : 01/11/2018 : 12:01
Catégorie : ANNEE 2018 - MOIS PASSES - OCTOBRE 2018
Page lue 63 fois


Réactions à cet article

Personne n'a encore laissé de commentaire.
Soyez donc le premier !